Time;durP1;ratioP1;P1;durP2;ratioP2;P2;SDS_P1;SDS_P2;PMS_P1;PMS_P2;Temp;Humidity;BMP_temperature;BMP_pressure;BME280_temperature;BME280_humidity;BME280_pressure;Samples;Min_cycle;Max_cycle;Signal;HPM_P1;HPM_P2
2022/12/09 00:00:36;;;;;;;10.10;8.57;;;;;;;;;;5031993;28;20204;-72
2022/12/09 00:03:05;;;;;;;11.10;9.30;;;;;;;;;;5030727;28;20211;-72
2022/12/09 00:05:39;;;;;;;15.50;10.33;;;;;;;;;;5031825;28;20212;-71
2022/12/09 00:08:06;;;;;;;14.40;10.73;;;;;;;;;;5024103;28;20208;-72
2022/12/09 00:10:33;;;;;;;15.20;11.43;;;;;;;;;;5028263;28;20217;-72
2022/12/09 00:13:11;;;;;;;15.77;12.03;;;;;;;;;;5031512;28;20210;-72
2022/12/09 00:15:40;;;;;;;16.27;11.33;;;;;;;;;;5031259;28;20208;-71
2022/12/09 00:18:07;;;;;;;14.40;11.23;;;;;;;;;;5031012;28;20201;-73
2022/12/09 00:20:36;;;;;;;16.40;12.20;;;;;;;;;;5026475;28;20204;-72
2022/12/09 00:23:04;;;;;;;15.70;11.60;;;;;;;;;;5032021;28;20214;-72
2022/12/09 00:25:32;;;;;;;13.90;10.73;;;;;;;;;;5030645;28;20330;-73
2022/12/09 00:27:59;;;;;;;15.03;12.00;;;;;;;;;;5030685;28;20240;-73
2022/12/09 00:30:26;;;;;;;14.50;11.10;;;;;;;;;;5025912;28;20211;-69
2022/12/09 00:32:53;;;;;;;17.70;11.30;;;;;;;;;;5027074;28;20192;-72
2022/12/09 00:35:20;;;;;;;15.93;11.73;;;;;;;;;;5026064;28;20216;-72
2022/12/09 00:37:49;;;;;;;15.93;11.00;;;;;;;;;;5027815;28;20215;-72
2022/12/09 00:40:16;;;;;;;14.57;10.87;;;;;;;;;;5030554;28;20208;-71
2022/12/09 00:42:43;;;;;;;16.50;12.03;;;;;;;;;;5030642;28;20200;-72
2022/12/09 00:45:10;;;;;;;15.83;11.90;;;;;;;;;;5025858;28;20211;-72
2022/12/09 00:47:38;;;;;;;16.73;12.47;;;;;;;;;;5016429;28;20204;-72
2022/12/09 00:50:05;;;;;;;16.13;11.83;;;;;;;;;;5016921;28;20227;-72
2022/12/09 00:52:33;;;;;;;15.10;11.77;;;;;;;;;;5029657;28;20228;-72
2022/12/09 00:55:01;;;;;;;14.73;11.13;;;;;;;;;;5029810;28;20220;-72
2022/12/09 00:57:28;;;;;;;14.37;10.13;;;;;;;;;;5029004;28;20215;-72
2022/12/09 00:59:55;;;;;;;14.93;11.00;;;;;;;;;;5029766;28;20201;-72
2022/12/09 01:02:22;;;;;;;13.73;10.77;;;;;;;;;;5027389;28;20207;-72
2022/12/09 01:04:51;;;;;;;16.83;12.07;;;;;;;;;;5022862;28;20206;-71
2022/12/09 01:07:18;;;;;;;18.27;13.17;;;;;;;;;;5018073;28;20196;-71
2022/12/09 01:09:45;;;;;;;21.40;13.47;;;;;;;;;;5016617;28;20204;-72
2022/12/09 01:12:14;;;;;;;18.80;13.67;;;;;;;;;;5017291;28;20219;-72
2022/12/09 01:14:41;;;;;;;18.63;13.23;;;;;;;;;;5022518;28;20226;-72
2022/12/09 01:17:08;;;;;;;18.97;12.80;;;;;;;;;;5016664;28;20208;-71
2022/12/09 01:19:36;;;;;;;16.03;11.93;;;;;;;;;;5026178;28;20218;-72
2022/12/09 01:22:03;;;;;;;15.33;12.10;;;;;;;;;;5020097;28;20271;-72
2022/12/09 01:24:30;;;;;;;16.60;12.73;;;;;;;;;;5019840;28;20204;-72
2022/12/09 01:26:57;;;;;;;17.40;12.60;;;;;;;;;;5020178;28;20204;-72
2022/12/09 01:29:25;;;;;;;17.67;12.03;;;;;;;;;;5020068;28;20267;-72
2022/12/09 01:31:54;;;;;;;17.67;12.07;;;;;;;;;;5023391;28;20200;-70
2022/12/09 01:34:21;;;;;;;15.57;11.20;;;;;;;;;;5023945;28;20220;-72
2022/12/09 01:36:49;;;;;;;18.70;12.17;;;;;;;;;;5024487;28;20216;-72
2022/12/09 01:39:16;;;;;;;15.97;11.03;;;;;;;;;;5030910;28;20291;-72
2022/12/09 01:41:44;;;;;;;15.83;11.27;;;;;;;;;;5029786;28;20204;-72
2022/12/09 01:44:16;;;;;;;13.43;10.00;;;;;;;;;;5029528;28;20550;-72
2022/12/09 01:46:45;;;;;;;16.77;11.10;;;;;;;;;;5026940;28;20212;-72
2022/12/09 01:49:14;;;;;;;13.43;10.13;;;;;;;;;;5024800;28;20212;-69
2022/12/09 01:51:42;;;;;;;13.20;9.23;;;;;;;;;;5017281;28;20204;-71
2022/12/09 01:54:10;;;;;;;12.53;8.67;;;;;;;;;;5015893;28;20221;-70
2022/12/09 01:56:38;;;;;;;11.87;8.73;;;;;;;;;;5017232;28;20199;-72
2022/12/09 01:59:07;;;;;;;10.40;7.77;;;;;;;;;;5020187;28;20208;-71
2022/12/09 02:01:34;;;;;;;9.90;7.97;;;;;;;;;;5023683;28;20196;-70
2022/12/09 02:04:03;;;;;;;9.90;7.87;;;;;;;;;;5016911;28;20204;-70
2022/12/09 02:06:30;;;;;;;10.47;8.27;;;;;;;;;;5019505;28;20211;-72
2022/12/09 02:08:57;;;;;;;9.57;7.47;;;;;;;;;;5021981;28;20212;-72
2022/12/09 02:11:27;;;;;;;10.93;8.33;;;;;;;;;;5018427;28;20204;-72
2022/12/09 02:14:00;;;;;;;9.77;7.80;;;;;;;;;;5016739;28;20203;-69
2022/12/09 02:16:29;;;;;;;10.80;8.20;;;;;;;;;;5020625;28;20215;-71
2022/12/09 02:19:01;;;;;;;9.73;7.57;;;;;;;;;;5019153;28;20196;-72
2022/12/09 02:21:33;;;;;;;10.33;7.93;;;;;;;;;;5016280;28;20224;-71
2022/12/09 02:24:04;;;;;;;10.70;8.63;;;;;;;;;;5018161;28;20223;-71
2022/12/09 02:26:34;;;;;;;19.03;9.57;;;;;;;;;;5020178;28;20208;-72
2022/12/09 02:29:19;;;;;;;9.40;8.17;;;;;;;;;;5019601;28;20235;-72
2022/12/09 02:31:55;;;;;;;10.20;8.03;;;;;;;;;;5014876;28;20215;-71
2022/12/09 02:34:27;;;;;;;11.43;8.27;;;;;;;;;;5021227;28;20226;-69
2022/12/09 02:37:00;;;;;;;10.70;8.37;;;;;;;;;;5032920;28;20224;-73
2022/12/09 02:39:31;;;;;;;12.67;8.93;;;;;;;;;;5032000;28;20428;-72
2022/12/09 02:42:00;;;;;;;10.83;8.67;;;;;;;;;;5019429;28;20219;-72
2022/12/09 02:44:27;;;;;;;10.23;8.13;;;;;;;;;;5034329;28;20206;-71
2022/12/09 02:46:55;;;;;;;9.93;8.33;;;;;;;;;;5033157;28;20200;-72
2022/12/09 02:49:25;;;;;;;9.87;8.10;;;;;;;;;;5034130;28;20204;-71
2022/12/09 02:51:52;;;;;;;9.83;8.23;;;;;;;;;;5032478;28;20200;-71
2022/12/09 02:54:19;;;;;;;11.40;8.50;;;;;;;;;;5033872;28;20220;-72
2022/12/09 02:56:50;;;;;;;10.63;8.40;;;;;;;;;;5032957;28;20201;-72
2022/12/09 02:59:17;;;;;;;10.83;8.70;;;;;;;;;;5031475;28;20206;-69
2022/12/09 03:01:49;;;;;;;10.73;8.27;;;;;;;;;;5031951;28;20204;-72
2022/12/09 03:04:18;;;;;;;11.63;8.70;;;;;;;;;;5025143;28;20197;-70
2022/12/09 03:06:49;;;;;;;10.50;8.07;;;;;;;;;;5021124;28;20215;-71
2022/12/09 03:09:18;;;;;;;12.97;10.10;;;;;;;;;;5026439;28;20212;-70
2022/12/09 03:11:46;;;;;;;12.23;9.40;;;;;;;;;;5017403;28;20216;-71
2022/12/09 03:14:16;;;;;;;11.30;8.80;;;;;;;;;;5018681;28;20271;-71
2022/12/09 03:16:46;;;;;;;11.93;9.57;;;;;;;;;;5023305;28;20210;-71
2022/12/09 03:19:17;;;;;;;11.67;9.00;;;;;;;;;;5025942;28;20206;-72
2022/12/09 03:21:46;;;;;;;12.13;9.13;;;;;;;;;;5021673;28;20207;-71
2022/12/09 03:24:16;;;;;;;13.07;9.43;;;;;;;;;;5019298;28;20204;-69
2022/12/09 03:26:43;;;;;;;11.93;9.47;;;;;;;;;;5023949;28;20211;-71
2022/12/09 03:29:13;;;;;;;11.93;8.13;;;;;;;;;;5022724;28;20246;-71
2022/12/09 03:31:40;;;;;;;12.57;8.73;;;;;;;;;;5021125;28;20205;-71
2022/12/09 03:34:09;;;;;;;11.73;8.80;;;;;;;;;;5026776;28;20234;-72
2022/12/09 03:36:38;;;;;;;12.27;8.90;;;;;;;;;;5022377;28;21556;-70
2022/12/09 03:39:06;;;;;;;11.80;8.70;;;;;;;;;;5025036;28;20208;-71
2022/12/09 03:41:35;;;;;;;11.47;9.17;;;;;;;;;;5021381;28;20216;-70
2022/12/09 03:44:05;;;;;;;11.27;8.77;;;;;;;;;;5015249;28;20204;-69
2022/12/09 03:46:32;;;;;;;13.23;8.57;;;;;;;;;;5021154;28;20215;-72
2022/12/09 03:48:59;;;;;;;11.77;8.37;;;;;;;;;;5031111;28;20204;-72
2022/12/09 03:51:28;;;;;;;10.63;8.57;;;;;;;;;;5028732;28;20208;-71
2022/12/09 03:53:59;;;;;;;12.03;8.97;;;;;;;;;;5029673;28;20243;-71
2022/12/09 03:56:28;;;;;;;10.83;8.20;;;;;;;;;;5030227;28;20227;-72
2022/12/09 03:58:58;;;;;;;11.17;8.27;;;;;;;;;;5024353;28;20215;-70
2022/12/09 04:01:26;;;;;;;13.00;8.67;;;;;;;;;;5018478;28;20226;-71
2022/12/09 04:03:55;;;;;;;11.10;8.83;;;;;;;;;;5027137;28;20192;-71
2022/12/09 04:06:22;;;;;;;10.77;8.70;;;;;;;;;;5018396;28;20192;-71
2022/12/09 04:08:49;;;;;;;14.40;9.53;;;;;;;;;;5017863;28;20208;-70
2022/12/09 04:11:16;;;;;;;12.40;9.97;;;;;;;;;;5017377;28;20218;-71
2022/12/09 04:13:43;;;;;;;11.17;8.97;;;;;;;;;;5020032;28;20200;-69
2022/12/09 04:16:12;;;;;;;12.13;8.80;;;;;;;;;;5026191;28;20226;-71
2022/12/09 04:18:39;;;;;;;12.63;9.20;;;;;;;;;;5030006;28;20208;-70
2022/12/09 04:21:07;;;;;;;12.97;9.47;;;;;;;;;;5027925;28;20204;-72
2022/12/09 04:23:34;;;;;;;14.03;9.70;;;;;;;;;;5019361;28;20211;-70
2022/12/09 04:26:01;;;;;;;11.10;9.03;;;;;;;;;;5019274;28;20216;-71
2022/12/09 04:28:28;;;;;;;13.17;10.00;;;;;;;;;;5027987;28;20236;-71
2022/12/09 04:30:56;;;;;;;14.27;10.97;;;;;;;;;;5015949;28;20215;-71
2022/12/09 04:33:24;;;;;;;12.30;9.50;;;;;;;;;;5017348;28;20231;-69
2022/12/09 04:35:51;;;;;;;13.60;10.60;;;;;;;;;;5024864;28;20224;-71
2022/12/09 04:38:19;;;;;;;12.10;9.50;;;;;;;;;;5016598;28;20239;-71
2022/12/09 04:40:46;;;;;;;12.23;8.23;;;;;;;;;;5020427;28;20208;-70
2022/12/09 04:43:13;;;;;;;11.97;9.47;;;;;;;;;;5016875;28;20216;-71
2022/12/09 04:45:40;;;;;;;11.67;9.47;;;;;;;;;;5020477;28;20211;-69
2022/12/09 04:48:07;;;;;;;13.97;9.97;;;;;;;;;;5017095;28;20212;-72
2022/12/09 04:50:36;;;;;;;12.43;9.23;;;;;;;;;;5023570;28;20228;-71
2022/12/09 04:53:03;;;;;;;12.90;9.57;;;;;;;;;;5028080;28;20212;-71
2022/12/09 04:55:30;;;;;;;14.00;9.83;;;;;;;;;;5027132;28;20220;-70
2022/12/09 04:57:57;;;;;;;12.77;9.30;;;;;;;;;;5025744;28;20207;-71
2022/12/09 05:00:24;;;;;;;11.90;9.33;;;;;;;;;;5028426;28;20206;-71
2022/12/09 05:02:52;;;;;;;11.13;8.77;;;;;;;;;;5023307;28;20207;-71
2022/12/09 05:05:19;;;;;;;13.47;10.10;;;;;;;;;;5019024;28;20205;-71
2022/12/09 05:07:47;;;;;;;13.20;9.80;;;;;;;;;;5021656;28;20208;-71
2022/12/09 05:10:15;;;;;;;13.60;9.93;;;;;;;;;;5028504;28;20215;-71
2022/12/09 05:12:42;;;;;;;11.20;9.83;;;;;;;;;;5015666;28;20207;-71
2022/12/09 05:15:09;;;;;;;13.40;9.67;;;;;;;;;;5015461;28;20220;-70
2022/12/09 05:17:36;;;;;;;13.17;10.63;;;;;;;;;;5024492;28;20206;-71
2022/12/09 05:20:04;;;;;;;13.87;10.07;;;;;;;;;;5025270;28;20475;-71
2022/12/09 05:22:31;;;;;;;12.70;10.27;;;;;;;;;;5027681;28;20200;-70
2022/12/09 05:25:00;;;;;;;13.47;9.97;;;;;;;;;;5026265;28;20212;-71
2022/12/09 05:27:27;;;;;;;14.97;11.50;;;;;;;;;;4979994;28;1114563;-71
2022/12/09 05:29:54;;;;;;;15.00;9.93;;;;;;;;;;5025284;28;20200;-71
2022/12/09 05:32:21;;;;;;;13.87;9.73;;;;;;;;;;5021598;28;20216;-71
2022/12/09 05:34:48;;;;;;;13.77;10.60;;;;;;;;;;5026260;28;20204;-71
2022/12/09 05:37:15;;;;;;;12.27;9.33;;;;;;;;;;5024363;28;20208;-71
2022/12/09 05:39:43;;;;;;;13.33;10.10;;;;;;;;;;5028232;28;21548;-71
2022/12/09 05:42:11;;;;;;;12.30;10.03;;;;;;;;;;5026452;28;20211;-71
2022/12/09 05:44:38;;;;;;;14.33;10.90;;;;;;;;;;5029647;28;20200;-72
2022/12/09 05:47:06;;;;;;;13.30;10.47;;;;;;;;;;5028533;28;20200;-71
2022/12/09 05:49:33;;;;;;;16.83;11.63;;;;;;;;;;5024111;28;20219;-72
2022/12/09 05:52:00;;;;;;;16.00;12.23;;;;;;;;;;5028066;28;20247;-71
2022/12/09 05:54:27;;;;;;;15.50;10.97;;;;;;;;;;5026666;28;20207;-71
2022/12/09 05:56:55;;;;;;;15.80;11.00;;;;;;;;;;5029169;28;20262;-71
2022/12/09 05:59:24;;;;;;;11.87;10.23;;;;;;;;;;5029835;28;20215;-71
2022/12/09 06:01:52;;;;;;;12.13;9.97;;;;;;;;;;5026177;28;20200;-72
2022/12/09 06:04:19;;;;;;;11.90;10.57;;;;;;;;;;5025736;28;20231;-71
2022/12/09 06:06:46;;;;;;;12.03;9.67;;;;;;;;;;5030330;28;20671;-71
2022/12/09 06:09:13;;;;;;;12.03;9.27;;;;;;;;;;5031030;28;20211;-71
2022/12/09 06:11:41;;;;;;;12.80;9.93;;;;;;;;;;5034521;28;20210;-72
2022/12/09 06:14:08;;;;;;;12.20;9.70;;;;;;;;;;5033825;28;20216;-71
2022/12/09 06:16:37;;;;;;;13.13;10.70;;;;;;;;;;5032928;28;20216;-71
2022/12/09 06:19:04;;;;;;;14.37;10.03;;;;;;;;;;5031499;28;20290;-69
2022/12/09 06:21:31;;;;;;;12.20;9.57;;;;;;;;;;5026031;28;20210;-71
2022/12/09 06:23:58;;;;;;;15.10;11.03;;;;;;;;;;5025249;28;20212;-70
2022/12/09 06:26:26;;;;;;;13.83;10.83;;;;;;;;;;5025915;28;20214;-71
2022/12/09 06:28:53;;;;;;;12.20;9.97;;;;;;;;;;5032724;28;20223;-71
2022/12/09 06:31:21;;;;;;;12.53;9.90;;;;;;;;;;5032383;28;20211;-72
2022/12/09 06:33:50;;;;;;;13.23;10.30;;;;;;;;;;5028919;28;20211;-72
2022/12/09 06:36:17;;;;;;;14.03;10.83;;;;;;;;;;5026651;28;20240;-70
2022/12/09 06:38:44;;;;;;;12.50;10.00;;;;;;;;;;5029639;28;20210;-71
2022/12/09 06:41:12;;;;;;;13.53;10.40;;;;;;;;;;5023304;28;20204;-71
2022/12/09 06:43:39;;;;;;;14.47;9.70;;;;;;;;;;5032546;28;20196;-72
2022/12/09 06:46:11;;;;;;;14.33;10.47;;;;;;;;;;5033431;28;20208;-71
2022/12/09 06:48:38;;;;;;;12.80;9.77;;;;;;;;;;5033344;28;20208;-71
2022/12/09 06:51:07;;;;;;;13.03;10.27;;;;;;;;;;5029691;28;20200;-70
2022/12/09 06:53:34;;;;;;;14.80;11.73;;;;;;;;;;5024800;28;20209;-71
2022/12/09 06:56:02;;;;;;;12.40;10.00;;;;;;;;;;5026544;28;20232;-72
2022/12/09 06:58:30;;;;;;;12.93;9.73;;;;;;;;;;5030504;28;20250;-71
2022/12/09 07:01:03;;;;;;;13.70;10.90;;;;;;;;;;5026888;28;20208;-72
2022/12/09 07:03:31;;;;;;;14.17;11.23;;;;;;;;;;5029737;28;20200;-72
2022/12/09 07:05:58;;;;;;;14.77;10.90;;;;;;;;;;5026384;28;20218;-71
2022/12/09 07:08:26;;;;;;;13.93;10.63;;;;;;;;;;5029864;28;20204;-72
2022/12/09 07:10:53;;;;;;;15.33;10.63;;;;;;;;;;5031513;28;20200;-72
2022/12/09 07:13:20;;;;;;;14.47;11.13;;;;;;;;;;5032055;28;20208;-72
2022/12/09 07:15:47;;;;;;;15.33;11.23;;;;;;;;;;5030522;28;20220;-71
2022/12/09 07:18:15;;;;;;;14.40;10.43;;;;;;;;;;5034138;28;20200;-72
2022/12/09 07:20:42;;;;;;;14.80;11.27;;;;;;;;;;5025768;28;20204;-71
2022/12/09 07:23:10;;;;;;;15.30;11.07;;;;;;;;;;5024261;28;20219;-71
2022/12/09 07:25:40;;;;;;;18.93;11.27;;;;;;;;;;5019598;28;20201;-71
2022/12/09 07:28:08;;;;;;;16.40;11.70;;;;;;;;;;5023891;28;20243;-70
2022/12/09 07:30:38;;;;;;;16.07;11.07;;;;;;;;;;5023318;28;20209;-71
2022/12/09 07:33:06;;;;;;;15.10;11.97;;;;;;;;;;5030581;28;20205;-71
2022/12/09 07:35:36;;;;;;;12.83;10.67;;;;;;;;;;5030002;28;20201;-71
2022/12/09 07:38:03;;;;;;;15.40;11.23;;;;;;;;;;5029751;28;20207;-72
2022/12/09 07:40:33;;;;;;;15.50;11.33;;;;;;;;;;5028290;28;20307;-71
2022/12/09 07:43:02;;;;;;;15.43;10.50;;;;;;;;;;5024498;28;20244;-71
2022/12/09 07:45:31;;;;;;;15.63;11.80;;;;;;;;;;5025105;28;20208;-71
2022/12/09 07:47:59;;;;;;;16.60;12.37;;;;;;;;;;5027959;28;20250;-71
2022/12/09 07:50:26;;;;;;;16.93;11.87;;;;;;;;;;5027697;28;20212;-71
2022/12/09 07:52:54;;;;;;;16.73;11.50;;;;;;;;;;5022633;28;20626;-72
2022/12/09 07:55:21;;;;;;;14.23;11.47;;;;;;;;;;5028448;28;20203;-71
2022/12/09 07:57:48;;;;;;;14.90;12.07;;;;;;;;;;5022456;28;20207;-70
2022/12/09 08:00:18;;;;;;;13.83;10.57;;;;;;;;;;5026365;28;20210;-71
2022/12/09 08:02:46;;;;;;;17.30;10.77;;;;;;;;;;5028114;28;20625;-71
2022/12/09 08:05:13;;;;;;;13.70;10.87;;;;;;;;;;5026322;28;20218;-72
2022/12/09 08:07:41;;;;;;;14.90;11.43;;;;;;;;;;5025732;28;20207;-71
2022/12/09 08:10:09;;;;;;;14.50;11.60;;;;;;;;;;5023391;28;20239;-71
2022/12/09 08:12:36;;;;;;;14.87;11.40;;;;;;;;;;5031752;28;20204;-69
2022/12/09 08:15:03;;;;;;;14.87;10.43;;;;;;;;;;5027221;28;20243;-72
2022/12/09 08:17:33;;;;;;;13.87;10.20;;;;;;;;;;5030345;28;20220;-71
2022/12/09 08:20:00;;;;;;;16.77;10.70;;;;;;;;;;5025339;28;20211;-71
2022/12/09 08:22:27;;;;;;;11.37;9.60;;;;;;;;;;5031011;28;20212;-71
2022/12/09 08:24:54;;;;;;;13.07;9.97;;;;;;;;;;5021753;28;20207;-72
2022/12/09 08:27:21;;;;;;;13.47;10.40;;;;;;;;;;5020640;28;20212;-72
2022/12/09 08:29:48;;;;;;;14.83;10.40;;;;;;;;;;5021813;28;20255;-72
2022/12/09 08:32:17;;;;;;;12.13;9.57;;;;;;;;;;5027458;28;20208;-71
2022/12/09 08:34:46;;;;;;;15.17;11.30;;;;;;;;;;5027411;28;20212;-71
2022/12/09 08:37:13;;;;;;;11.97;9.87;;;;;;;;;;5025245;28;20228;-70
2022/12/09 08:39:40;;;;;;;14.23;9.97;;;;;;;;;;5030630;28;20219;-72
2022/12/09 08:42:07;;;;;;;14.07;10.07;;;;;;;;;;5020110;28;20203;-72
2022/12/09 08:44:34;;;;;;;13.37;10.23;;;;;;;;;;5028084;28;20207;-71
2022/12/09 08:47:01;;;;;;;12.00;9.73;;;;;;;;;;5031414;28;20203;-72
2022/12/09 08:49:28;;;;;;;11.33;9.30;;;;;;;;;;5020730;28;20216;-71
2022/12/09 08:51:57;;;;;;;12.47;8.90;;;;;;;;;;5022324;28;20196;-72
2022/12/09 08:54:24;;;;;;;13.20;9.67;;;;;;;;;;5031344;28;20208;-71
2022/12/09 08:56:53;;;;;;;12.07;9.50;;;;;;;;;;5028707;28;20306;-72
2022/12/09 08:59:21;;;;;;;12.30;9.00;;;;;;;;;;5026012;28;20196;-72
2022/12/09 09:01:48;;;;;;;12.13;9.20;;;;;;;;;;5025617;28;20211;-72
2022/12/09 09:04:16;;;;;;;11.47;9.23;;;;;;;;;;5026649;28;20220;-71
2022/12/09 09:06:45;;;;;;;15.90;9.90;;;;;;;;;;5028876;28;20203;-73
2022/12/09 09:09:14;;;;;;;10.57;8.37;;;;;;;;;;5026932;28;20204;-72
2022/12/09 09:11:42;;;;;;;11.67;8.30;;;;;;;;;;5021459;28;20200;-71
2022/12/09 09:14:10;;;;;;;12.93;9.23;;;;;;;;;;5027240;28;20208;-72
2022/12/09 09:16:38;;;;;;;10.07;8.37;;;;;;;;;;5027795;28;20226;-71
2022/12/09 09:19:05;;;;;;;10.97;7.70;;;;;;;;;;5030024;28;20258;-71
2022/12/09 09:21:33;;;;;;;10.10;8.10;;;;;;;;;;5017914;28;20210;-71
2022/12/09 09:24:00;;;;;;;8.93;7.50;;;;;;;;;;5031393;28;20215;-69
2022/12/09 09:26:29;;;;;;;11.07;7.87;;;;;;;;;;5031561;28;20200;-69
2022/12/09 09:28:56;;;;;;;23.63;11.13;;;;;;;;;;5031318;28;20242;-70
2022/12/09 09:31:24;;;;;;;20.70;11.23;;;;;;;;;;5030323;28;20218;-71
2022/12/09 09:33:51;;;;;;;15.57;8.47;;;;;;;;;;5024677;28;20636;-71
2022/12/09 09:36:20;;;;;;;9.67;7.70;;;;;;;;;;5017997;28;20224;-71
2022/12/09 09:38:47;;;;;;;16.23;8.37;;;;;;;;;;5031551;28;20223;-71
2022/12/09 09:41:21;;;;;;;29.37;12.33;;;;;;;;;;5031601;28;20204;-71
2022/12/09 09:43:49;;;;;;;27.63;12.23;;;;;;;;;;5030138;28;20210;-70
2022/12/09 09:46:18;;;;;;;14.93;8.53;;;;;;;;;;5012936;28;20215;-70
2022/12/09 09:48:46;;;;;;;11.40;7.90;;;;;;;;;;5015192;28;20242;-71
2022/12/09 09:51:16;;;;;;;10.60;8.07;;;;;;;;;;5031541;28;20224;-71
2022/12/09 09:53:43;;;;;;;11.23;7.57;;;;;;;;;;5030147;28;20310;-71
2022/12/09 09:56:17;;;;;;;13.13;8.27;;;;;;;;;;5030887;28;20208;-71
2022/12/09 09:58:47;;;;;;;15.43;8.47;;;;;;;;;;5030738;28;20242;-70
2022/12/09 10:01:17;;;;;;;17.97;9.43;;;;;;;;;;5029094;28;20200;-64
2022/12/09 10:03:49;;;;;;;14.23;8.90;;;;;;;;;;5027327;28;20208;-63
2022/12/09 10:06:22;;;;;;;19.63;10.30;;;;;;;;;;5035369;28;20207;-64
2022/12/09 10:08:54;;;;;;;17.13;9.43;;;;;;;;;;5037179;28;20204;-64
2022/12/09 10:11:24;;;;;;;29.13;12.17;;;;;;;;;;5016017;28;20205;-63
2022/12/09 10:13:54;;;;;;;19.80;10.20;;;;;;;;;;5029493;28;20219;-64
2022/12/09 10:16:24;;;;;;;14.93;9.37;;;;;;;;;;5031057;28;20219;-64
2022/12/09 10:19:00;;;;;;;8.40;7.23;;;;;;;;;;5022960;28;20263;-64
2022/12/09 10:21:28;;;;;;;10.97;7.40;;;;;;;;;;5029620;28;20212;-63
2022/12/09 10:23:56;;;;;;;10.53;7.70;;;;;;;;;;5027546;28;20227;-63
2022/12/09 10:26:24;;;;;;;8.40;6.77;;;;;;;;;;5030150;28;20272;-65
2022/12/09 10:28:55;;;;;;;7.70;6.70;;;;;;;;;;5025332;28;20248;-64
2022/12/09 10:31:24;;;;;;;8.53;7.50;;;;;;;;;;5024496;28;20225;-64
2022/12/09 10:33:51;;;;;;;10.20;7.70;;;;;;;;;;5025415;28;20212;-64
2022/12/09 10:36:22;;;;;;;9.90;8.13;;;;;;;;;;5024205;28;20208;-64
2022/12/09 10:38:49;;;;;;;10.97;8.67;;;;;;;;;;5028283;28;20207;-64
2022/12/09 10:43:33;;;;;;;10.30;7.67;;;;;;;;;;5027583;28;20207;-64
2022/12/09 10:44:17;;;;;;;8.97;7.47;;;;;;;;;;5021081;28;20205;-65
2022/12/09 10:46:46;;;;;;;8.30;7.20;;;;;;;;;;5026783;28;20283;-65
2022/12/09 10:49:18;;;;;;;9.60;7.20;;;;;;;;;;5027660;28;20204;-64
2022/12/09 10:51:49;;;;;;;8.27;7.10;;;;;;;;;;5026984;28;20200;-64
2022/12/09 10:54:20;;;;;;;9.83;7.77;;;;;;;;;;5025551;28;20204;-64
2022/12/09 10:57:01;;;;;;;7.30;6.53;;;;;;;;;;5026967;28;20223;-64
2022/12/09 10:59:29;;;;;;;7.83;6.90;;;;;;;;;;5020948;28;20205;-65
2022/12/09 11:01:59;;;;;;;7.90;6.60;;;;;;;;;;5022939;28;20207;-64
2022/12/09 11:04:27;;;;;;;8.20;6.90;;;;;;;;;;5028540;28;20286;-64
2022/12/09 11:06:55;;;;;;;7.27;5.67;;;;;;;;;;5030242;28;20291;-64
2022/12/09 11:09:25;;;;;;;8.20;6.23;;;;;;;;;;5020465;28;20267;-63
2022/12/09 11:11:53;;;;;;;6.13;5.37;;;;;;;;;;5021576;28;20204;-64
2022/12/09 11:14:22;;;;;;;8.93;6.70;;;;;;;;;;5030418;28;20196;-65
2022/12/09 11:16:50;;;;;;;10.80;7.97;;;;;;;;;;5028922;28;20226;-64
2022/12/09 11:19:18;;;;;;;10.43;7.13;;;;;;;;;;5028381;28;20292;-65
2022/12/09 11:21:46;;;;;;;6.67;6.00;;;;;;;;;;5024693;28;20303;-65
2022/12/09 11:24:23;;;;;;;6.20;5.60;;;;;;;;;;5028035;28;20291;-64
2022/12/09 11:26:50;;;;;;;6.87;6.07;;;;;;;;;;5025994;28;20204;-64
2022/12/09 11:29:18;;;;;;;8.60;5.63;;;;;;;;;;5023863;28;20235;-65
2022/12/09 11:31:46;;;;;;;6.53;5.83;;;;;;;;;;5024400;28;20200;-65
2022/12/09 11:34:18;;;;;;;8.40;6.13;;;;;;;;;;5021014;28;20208;-64
2022/12/09 11:36:49;;;;;;;6.57;5.97;;;;;;;;;;5024355;28;20240;-65
2022/12/09 11:39:22;;;;;;;6.77;6.07;;;;;;;;;;5031034;28;20204;-65
2022/12/09 11:44:37;;;;;;;8.30;7.07;;;;;;;;;;5029505;28;20207;-65
2022/12/09 11:47:05;;;;;;;8.83;7.00;;;;;;;;;;5025603;28;20211;-64
2022/12/09 11:49:33;;;;;;;8.10;6.80;;;;;;;;;;5022729;28;20212;-65
2022/12/09 11:52:24;;;;;;;9.17;6.57;;;;;;;;;;5020929;28;20201;-66
2022/12/09 11:54:56;;;;;;;7.23;6.53;;;;;;;;;;5027436;28;20208;-64
2022/12/09 11:57:28;;;;;;;8.63;5.77;;;;;;;;;;5022034;28;20228;-64
2022/12/09 11:59:59;;;;;;;7.47;5.63;;;;;;;;;;5031617;28;20200;-64
2022/12/09 12:02:29;;;;;;;6.93;6.23;;;;;;;;;;5030250;28;20200;-64
2022/12/09 12:05:00;;;;;;;7.90;6.10;;;;;;;;;;5031231;28;20205;-66
2022/12/09 12:07:31;;;;;;;5.83;4.93;;;;;;;;;;5025106;28;20212;-65
2022/12/09 12:09:59;;;;;;;7.23;6.10;;;;;;;;;;5023134;28;20204;-66
2022/12/09 12:12:31;;;;;;;6.57;5.50;;;;;;;;;;5031513;28;20196;-66
2022/12/09 12:14:59;;;;;;;5.63;4.60;;;;;;;;;;5030541;28;20200;-66
2022/12/09 12:17:30;;;;;;;5.03;4.37;;;;;;;;;;5027182;28;20224;-66
2022/12/09 12:19:57;;;;;;;7.27;4.60;;;;;;;;;;5026460;28;20203;-66
2022/12/09 12:22:42;;;;;;;8.20;4.90;;;;;;;;;;5026221;28;20196;-64
2022/12/09 12:25:25;;;;;;;6.83;5.40;;;;;;;;;;5022343;28;20238;-64
2022/12/09 12:28:02;;;;;;;7.57;6.73;;;;;;;;;;5026373;28;20224;-65
2022/12/09 12:30:34;;;;;;;6.13;5.07;;;;;;;;;;5028622;28;20221;-65
2022/12/09 12:33:08;;;;;;;6.00;5.20;;;;;;;;;;5025764;28;20201;-66
2022/12/09 12:35:40;;;;;;;7.30;5.57;;;;;;;;;;5026576;28;20197;-66
2022/12/09 12:38:15;;;;;;;5.57;5.07;;;;;;;;;;5029647;28;20230;-65
2022/12/09 12:40:46;;;;;;;7.87;5.40;;;;;;;;;;5023255;28;20237;-65
2022/12/09 12:46:17;;;;;;;7.83;6.67;;;;;;;;;;5028242;28;20203;-65
2022/12/09 12:48:50;;;;;;;6.27;5.67;;;;;;;;;;5026615;28;20199;-66
2022/12/09 12:51:21;;;;;;;7.17;5.97;;;;;;;;;;5026992;28;20211;-66
2022/12/09 12:53:52;;;;;;;6.87;5.67;;;;;;;;;;5026953;28;20211;-65
2022/12/09 12:56:23;;;;;;;7.10;6.40;;;;;;;;;;5028479;28;20202;-66
2022/12/09 12:58:56;;;;;;;7.13;6.13;;;;;;;;;;5024775;28;20227;-66
2022/12/09 13:01:28;;;;;;;5.80;5.20;;;;;;;;;;5026468;28;20208;-65
2022/12/09 13:03:59;;;;;;;6.20;4.60;;;;;;;;;;5027058;28;20204;-65
2022/12/09 13:06:32;;;;;;;6.37;4.47;;;;;;;;;;5027386;28;20208;-66
2022/12/09 13:09:03;;;;;;;7.73;5.97;;;;;;;;;;5026535;28;20201;-66
2022/12/09 13:11:33;;;;;;;5.97;5.27;;;;;;;;;;5028552;28;20205;-66
2022/12/09 13:14:02;;;;;;;5.43;4.73;;;;;;;;;;5028204;28;20200;-64
2022/12/09 13:16:31;;;;;;;6.33;5.17;;;;;;;;;;5028821;28;20207;-64
2022/12/09 13:19:01;;;;;;;7.00;4.50;;;;;;;;;;5027991;28;20228;-64
2022/12/09 13:21:28;;;;;;;6.00;5.40;;;;;;;;;;5027493;28;20203;-65
2022/12/09 13:24:00;;;;;;;6.17;5.57;;;;;;;;;;5029466;28;20226;-64
2022/12/09 13:26:33;;;;;;;6.67;5.97;;;;;;;;;;5029248;28;20208;-65
2022/12/09 13:29:04;;;;;;;5.60;4.73;;;;;;;;;;5026081;28;20232;-64
2022/12/09 13:31:32;;;;;;;6.77;4.37;;;;;;;;;;5021924;28;20298;-66
2022/12/09 13:34:05;;;;;;;4.43;4.03;;;;;;;;;;5025830;28;20200;-64
2022/12/09 13:36:36;;;;;;;5.60;5.10;;;;;;;;;;5029018;28;20219;-65
2022/12/09 13:39:04;;;;;;;5.10;4.60;;;;;;;;;;5021049;28;20224;-65
2022/12/09 13:44:33;;;;;;;4.23;3.83;;;;;;;;;;5017825;28;20346;-65
2022/12/09 13:47:16;;;;;;;4.90;4.40;;;;;;;;;;5017784;28;20207;-64
2022/12/09 13:49:52;;;;;;;5.40;4.60;;;;;;;;;;5029010;28;20200;-65
2022/12/09 13:52:39;;;;;;;5.30;4.80;;;;;;;;;;5027559;28;20200;-65
2022/12/09 13:55:17;;;;;;;5.17;4.73;;;;;;;;;;5027637;28;20208;-64
2022/12/09 13:57:51;;;;;;;5.37;4.80;;;;;;;;;;5021149;28;20689;-65
2022/12/09 14:00:19;;;;;;;7.07;4.80;;;;;;;;;;5026416;28;20214;-64
2022/12/09 14:02:52;;;;;;;4.83;4.43;;;;;;;;;;5028127;28;20208;-65
2022/12/09 14:05:21;;;;;;;5.97;4.80;;;;;;;;;;5024568;28;20196;-65
2022/12/09 14:07:50;;;;;;;7.73;6.90;;;;;;;;;;5041085;28;20203;-64
2022/12/09 14:10:37;;;;;;;10.80;7.63;;;;;;;;;;5030293;28;20208;-64
2022/12/09 14:13:19;;;;;;;18.40;13.13;;;;;;;;;;5025993;28;20207;-65
2022/12/09 14:15:48;;;;;;;12.70;10.03;;;;;;;;;;5025358;28;20257;-65
2022/12/09 14:18:29;;;;;;;11.20;8.77;;;;;;;;;;5026440;28;20234;-65
2022/12/09 14:21:15;;;;;;;10.00;8.83;;;;;;;;;;5029642;28;20215;-65
2022/12/09 14:24:02;;;;;;;7.07;5.80;;;;;;;;;;5028753;28;20206;-65
2022/12/09 14:26:36;;;;;;;6.73;4.87;;;;;;;;;;5029272;28;20218;-64
2022/12/09 14:29:03;;;;;;;6.63;5.27;;;;;;;;;;5024599;28;20240;-65
2022/12/09 14:31:49;;;;;;;9.37;7.03;;;;;;;;;;5031412;28;20212;-65
2022/12/09 14:34:27;;;;;;;7.57;6.77;;;;;;;;;;5027361;28;20208;-65
2022/12/09 14:37:00;;;;;;;9.03;7.07;;;;;;;;;;5026696;28;20211;-64
2022/12/09 14:39:29;;;;;;;7.27;6.00;;;;;;;;;;5025781;28;20228;-65
2022/12/09 14:41:58;;;;;;;7.10;6.27;;;;;;;;;;5027511;28;20204;-66
2022/12/09 14:44:31;;;;;;;6.77;5.60;;;;;;;;;;5030981;28;20197;-66
2022/12/09 14:47:10;;;;;;;6.87;5.13;;;;;;;;;;5032137;28;20204;-66
2022/12/09 14:49:37;;;;;;;7.70;6.63;;;;;;;;;;5029696;28;20210;-67